Decoded Metar for KBRO (BROWNSVILLE in TX, USA) (IATA:BRO) | Meteo·Mobile Aviation Weather
aviador You're here:

KBRO Decoded Metar

BROWNSVILLE in TX, USA
Report Time2019-03-23 07:53:00
UTC Time2019-03-23 08:24:19
Flight Rules vfr VFR
Wind140° at 09 kt
W.Decomp.*RWY 13: 9.0 kt HW 0.5 kt RCW
RWY 17: 7.2 kt HW 5.4 kt LCW
W.Rank140° ranks 2
Current wind is below 140° avg. (10.4)
Visibility9999 m
Phenomena:N/A
Clouds:Broken 080 Hf
Expected CloudBase > 1,200 ft AGL from Temp-Dew spread
Ceiling8,000 ft
Temp21°C (ISA +6)
Dew Point18°C (83% RH)
AAT20.6°C
QNH1017 hPa
Density Alt866 ft
Elevation23 ft
Report Wrong Elevation
Raw Report
KBRO 230753Z AUTO 14009KT 10SM BKN080 21/18 A3003 RMK AO2 SLP167
T02060178=

Extra information for KBRO:More info

Metar Taf Metar & Taf Last 4 Metars F.Rules Stats Wind Profile Meteogram Temp Stats Airport Information Weather charts Add Link Nearby VenuesMetar ALERT Operation Metar Decoded Social comments

AIRNAV info for KBRO